sensor_id;sensor_type;location;lat;lon;timestamp;pressure;altitude;pressure_sealevel;temperature;humidity
54806;BME280;62866;55.776;37.496;2023-01-25T00:00:39;101364.03;;;0.19;80.07
54806;BME280;62866;55.776;37.496;2023-01-25T00:03:05;101372.19;;;0.30;79.21
54806;BME280;62866;55.776;37.496;2023-01-25T00:05:30;101365.94;;;0.32;79.15
54806;BME280;62866;55.776;37.496;2023-01-25T00:07:56;101347.16;;;0.23;79.10
54806;BME280;62866;55.776;37.496;2023-01-25T00:10:21;101353.28;;;0.23;78.84
54806;BME280;62866;55.776;37.496;2023-01-25T00:12:47;101343.69;;;0.07;79.16
54806;BME280;62866;55.776;37.496;2023-01-25T00:15:12;101357.06;;;0.18;79.16
54806;BME280;62866;55.776;37.496;2023-01-25T00:17:38;101362.59;;;0.29;79.23
54806;BME280;62866;55.776;37.496;2023-01-25T00:20:04;101359.13;;;0.13;79.42
54806;BME280;62866;55.776;37.496;2023-01-25T00:22:29;101358.53;;;0.23;79.31
54806;BME280;62866;55.776;37.496;2023-01-25T00:24:55;101350.38;;;0.28;79.07
54806;BME280;62866;55.776;37.496;2023-01-25T00:27:20;101341.72;;;0.26;79.03
54806;BME280;62866;55.776;37.496;2023-01-25T00:29:47;101341.84;;;0.24;79.01
54806;BME280;62866;55.776;37.496;2023-01-25T00:34:50;101325.94;;;0.26;79.29
54806;BME280;62866;55.776;37.496;2023-01-25T00:37:45;101328.41;;;0.29;79.18
54806;BME280;62866;55.776;37.496;2023-01-25T00:40:11;101305.25;;;0.20;79.18
54806;BME280;62866;55.776;37.496;2023-01-25T00:42:40;101323.22;;;0.12;79.46
54806;BME280;62866;55.776;37.496;2023-01-25T00:45:06;101309.00;;;0.16;79.60
54806;BME280;62866;55.776;37.496;2023-01-25T00:47:32;101318.91;;;0.26;79.41
54806;BME280;62866;55.776;37.496;2023-01-25T00:49:58;101320.53;;;0.29;78.80
54806;BME280;62866;55.776;37.496;2023-01-25T00:52:23;101318.31;;;0.21;78.88
54806;BME280;62866;55.776;37.496;2023-01-25T00:54:49;101306.94;;;0.05;79.09
54806;BME280;62866;55.776;37.496;2023-01-25T00:57:14;101316.97;;;0.14;79.47
54806;BME280;62866;55.776;37.496;2023-01-25T00:59:40;101307.47;;;0.12;79.19
54806;BME280;62866;55.776;37.496;2023-01-25T01:02:09;101295.25;;;0.11;79.15
54806;BME280;62866;55.776;37.496;2023-01-25T01:04:36;101305.59;;;-0.02;79.60
54806;BME280;62866;55.776;37.496;2023-01-25T01:07:01;101305.53;;;-0.01;79.63
54806;BME280;62866;55.776;37.496;2023-01-25T01:09:27;101298.78;;;-0.06;79.35
54806;BME280;62866;55.776;37.496;2023-01-25T01:11:53;101296.16;;;-0.06;79.67
54806;BME280;62866;55.776;37.496;2023-01-25T01:14:19;101296.78;;;-0.01;79.10
54806;BME280;62866;55.776;37.496;2023-01-25T01:16:45;101303.19;;;0.09;79.17
54806;BME280;62866;55.776;37.496;2023-01-25T01:19:11;101291.75;;;0.10;78.78
54806;BME280;62866;55.776;37.496;2023-01-25T01:21:37;101298.38;;;0.17;78.87
54806;BME280;62866;55.776;37.496;2023-01-25T01:24:02;101291.84;;;0.09;78.77
54806;BME280;62866;55.776;37.496;2023-01-25T01:26:28;101288.13;;;0.13;78.75
54806;BME280;62866;55.776;37.496;2023-01-25T01:28:53;101277.09;;;0.06;78.83
54806;BME280;62866;55.776;37.496;2023-01-25T01:31:21;101258.28;;;-0.02;78.56
54806;BME280;62866;55.776;37.496;2023-01-25T01:33:52;101277.31;;;0.17;78.66
54806;BME280;62866;55.776;37.496;2023-01-25T01:36:19;101273.75;;;0.18;78.32
54806;BME280;62866;55.776;37.496;2023-01-25T01:38:45;101261.53;;;0.17;78.22
54806;BME280;62866;55.776;37.496;2023-01-25T01:41:12;101271.13;;;0.18;78.25
54806;BME280;62866;55.776;37.496;2023-01-25T01:43:38;101281.84;;;0.15;78.13
54806;BME280;62866;55.776;37.496;2023-01-25T01:48:42;101259.13;;;0.14;78.34
54806;BME280;62866;55.776;37.496;2023-01-25T01:51:20;101255.88;;;0.25;78.17
54806;BME280;62866;55.776;37.496;2023-01-25T01:53:58;101241.19;;;0.21;78.42
54806;BME280;62866;55.776;37.496;2023-01-25T01:56:32;101250.38;;;0.14;78.59
54806;BME280;62866;55.776;37.496;2023-01-25T01:58:59;101254.69;;;0.15;78.24
54806;BME280;62866;55.776;37.496;2023-01-25T02:01:25;101250.22;;;0.17;78.36
54806;BME280;62866;55.776;37.496;2023-01-25T02:03:52;101255.13;;;0.23;77.96
54806;BME280;62866;55.776;37.496;2023-01-25T02:08:53;101246.00;;;0.28;78.31
54806;BME280;62866;55.776;37.496;2023-01-25T02:11:19;101260.88;;;0.29;78.10
54806;BME280;62866;55.776;37.496;2023-01-25T02:13:46;101257.66;;;0.24;78.03
54806;BME280;62866;55.776;37.496;2023-01-25T02:16:18;101248.31;;;0.19;78.07
54806;BME280;62866;55.776;37.496;2023-01-25T02:18:46;101254.34;;;0.21;77.84
54806;BME280;62866;55.776;37.496;2023-01-25T02:21:12;101260.53;;;0.20;77.98
54806;BME280;62866;55.776;37.496;2023-01-25T02:23:49;101252.72;;;0.18;78.19
54806;BME280;62866;55.776;37.496;2023-01-25T02:26:17;101266.28;;;0.26;77.86
54806;BME280;62866;55.776;37.496;2023-01-25T02:31:18;101261.97;;;0.25;77.72
54806;BME280;62866;55.776;37.496;2023-01-25T02:33:44;101253.34;;;0.23;77.82
54806;BME280;62866;55.776;37.496;2023-01-25T02:38:42;101262.22;;;0.21;78.24
54806;BME280;62866;55.776;37.496;2023-01-25T02:41:11;101268.84;;;0.12;78.47
54806;BME280;62866;55.776;37.496;2023-01-25T02:43:38;101265.78;;;0.20;78.43
54806;BME280;62866;55.776;37.496;2023-01-25T02:46:25;101244.00;;;0.02;77.97
54806;BME280;62866;55.776;37.496;2023-01-25T02:48:53;101265.13;;;0.16;78.29
54806;BME280;62866;55.776;37.496;2023-01-25T02:51:23;101275.75;;;0.15;78.17
54806;BME280;62866;55.776;37.496;2023-01-25T02:53:49;101273.03;;;0.16;78.55
54806;BME280;62866;55.776;37.496;2023-01-25T02:56:15;101264.38;;;0.14;78.06
54806;BME280;62866;55.776;37.496;2023-01-25T02:58:41;101277.75;;;0.10;78.03
54806;BME280;62866;55.776;37.496;2023-01-25T03:01:07;101267.16;;;0.11;78.15
54806;BME280;62866;55.776;37.496;2023-01-25T03:03:33;101271.13;;;0.18;78.04
54806;BME280;62866;55.776;37.496;2023-01-25T03:05:58;101281.41;;;0.23;77.82
54806;BME280;62866;55.776;37.496;2023-01-25T03:08:24;101273.69;;;0.20;77.54
54806;BME280;62866;55.776;37.496;2023-01-25T03:10:49;101269.78;;;0.11;77.97
54806;BME280;62866;55.776;37.496;2023-01-25T03:13:15;101235.09;;;0.05;78.03
54806;BME280;62866;55.776;37.496;2023-01-25T03:15:41;101240.00;;;0.11;77.95
54806;BME280;62866;55.776;37.496;2023-01-25T03:18:06;101254.50;;;0.18;78.06
54806;BME280;62866;55.776;37.496;2023-01-25T03:20:32;101237.31;;;0.12;77.75
54806;BME280;62866;55.776;37.496;2023-01-25T03:22:57;101245.88;;;0.16;77.75
54806;BME280;62866;55.776;37.496;2023-01-25T03:25:23;101223.56;;;0.07;77.63
54806;BME280;62866;55.776;37.496;2023-01-25T03:27:48;101231.19;;;0.12;77.93
54806;BME280;62866;55.776;37.496;2023-01-25T03:30:14;101231.53;;;0.06;78.10
54806;BME280;62866;55.776;37.496;2023-01-25T03:32:39;101243.56;;;0.10;78.29
54806;BME280;62866;55.776;37.496;2023-01-25T03:35:05;101236.53;;;0.10;78.16
54806;BME280;62866;55.776;37.496;2023-01-25T03:37:31;101236.44;;;0.12;78.20
54806;BME280;62866;55.776;37.496;2023-01-25T03:39:58;101233.91;;;0.10;78.14
54806;BME280;62866;55.776;37.496;2023-01-25T03:42:23;101241.56;;;0.15;78.61
54806;BME280;62866;55.776;37.496;2023-01-25T03:44:49;101229.41;;;0.12;78.12
54806;BME280;62866;55.776;37.496;2023-01-25T03:47:15;101232.22;;;0.09;78.18
54806;BME280;62866;55.776;37.496;2023-01-25T03:49:41;101242.81;;;0.23;78.07
54806;BME280;62866;55.776;37.496;2023-01-25T03:52:06;101218.41;;;0.06;77.76
54806;BME280;62866;55.776;37.496;2023-01-25T03:54:32;101241.56;;;0.15;78.61
54806;BME280;62866;55.776;37.496;2023-01-25T03:56:57;101233.47;;;0.18;78.41
54806;BME280;62866;55.776;37.496;2023-01-25T03:59:23;101236.00;;;0.19;78.35
54806;BME280;62866;55.776;37.496;2023-01-25T04:01:49;101231.03;;;0.15;78.37
54806;BME280;62866;55.776;37.496;2023-01-25T04:04:14;101230.00;;;0.17;78.34
54806;BME280;62866;55.776;37.496;2023-01-25T04:06:40;101235.69;;;0.10;78.33
54806;BME280;62866;55.776;37.496;2023-01-25T04:09:06;101231.91;;;-0.01;78.58
54806;BME280;62866;55.776;37.496;2023-01-25T04:11:31;101229.34;;;-0.02;78.85
54806;BME280;62866;55.776;37.496;2023-01-25T04:13:57;101231.38;;;-0.07;78.72
54806;BME280;62866;55.776;37.496;2023-01-25T04:16:22;101226.53;;;0.01;79.13
54806;BME280;62866;55.776;37.496;2023-01-25T04:18:48;101233.97;;;0.09;78.83
54806;BME280;62866;55.776;37.496;2023-01-25T04:21:14;101241.06;;;0.08;78.45
54806;BME280;62866;55.776;37.496;2023-01-25T04:23:39;101228.16;;;0.04;78.05
54806;BME280;62866;55.776;37.496;2023-01-25T04:26:06;101236.06;;;-0.12;78.80
54806;BME280;62866;55.776;37.496;2023-01-25T04:28:33;101242.66;;;-0.05;78.62
54806;BME280;62866;55.776;37.496;2023-01-25T04:31:00;101231.78;;;0.01;78.66
54806;BME280;62866;55.776;37.496;2023-01-25T04:33:28;101226.63;;;-0.01;78.48
54806;BME280;62866;55.776;37.496;2023-01-25T04:35:53;101242.50;;;-0.18;78.81
54806;BME280;62866;55.776;37.496;2023-01-25T04:38:19;101237.66;;;-0.10;78.85
54806;BME280;62866;55.776;37.496;2023-01-25T04:40:44;101244.19;;;-0.01;78.91
54806;BME280;62866;55.776;37.496;2023-01-25T04:43:12;101248.53;;;0.00;78.71
54806;BME280;62866;55.776;37.496;2023-01-25T04:45:38;101250.88;;;0.05;78.52
54806;BME280;62866;55.776;37.496;2023-01-25T04:48:06;101237.66;;;-0.10;78.44
54806;BME280;62866;55.776;37.496;2023-01-25T04:50:40;101245.38;;;-0.07;78.34
54806;BME280;62866;55.776;37.496;2023-01-25T04:53:06;101248.06;;;-0.08;78.39
54806;BME280;62866;55.776;37.496;2023-01-25T04:55:32;101257.56;;;-0.06;78.33
54806;BME280;62866;55.776;37.496;2023-01-25T04:57:58;101255.03;;;-0.07;78.27
54806;BME280;62866;55.776;37.496;2023-01-25T05:00:25;101259.88;;;0.00;78.49
54806;BME280;62866;55.776;37.496;2023-01-25T05:02:50;101226.63;;;-0.16;77.96
54806;BME280;62866;55.776;37.496;2023-01-25T05:05:16;101247.56;;;0.01;77.75
54806;BME280;62866;55.776;37.496;2023-01-25T05:07:42;101234.34;;;-0.13;77.96
54806;BME280;62866;55.776;37.496;2023-01-25T05:10:08;101248.19;;;-0.10;78.29
54806;BME280;62866;55.776;37.496;2023-01-25T05:12:34;101239.25;;;-0.07;77.84
54806;BME280;62866;55.776;37.496;2023-01-25T05:14:59;101237.75;;;-0.11;78.21
54806;BME280;62866;55.776;37.496;2023-01-25T05:17:25;101234.44;;;-0.15;77.86
54806;BME280;62866;55.776;37.496;2023-01-25T05:19:50;101241.31;;;-0.28;78.00
54806;BME280;62866;55.776;37.496;2023-01-25T05:22:17;101240.53;;;-0.46;78.34
54806;BME280;62866;55.776;37.496;2023-01-25T05:24:45;101254.66;;;-0.48;78.46
54806;BME280;62866;55.776;37.496;2023-01-25T05:27:13;101247.63;;;-0.48;78.70
54806;BME280;62866;55.776;37.496;2023-01-25T05:29:40;101257.06;;;-0.44;78.50
54806;BME280;62866;55.776;37.496;2023-01-25T05:32:08;101251.88;;;-0.45;78.28
54806;BME280;62866;55.776;37.496;2023-01-25T05:34:35;101264.69;;;-0.39;78.35
54806;BME280;62866;55.776;37.496;2023-01-25T05:37:01;101265.38;;;-0.35;78.34
54806;BME280;62866;55.776;37.496;2023-01-25T05:39:27;101257.31;;;-0.32;78.40
54806;BME280;62866;55.776;37.496;2023-01-25T05:41:53;101260.19;;;-0.37;77.88
54806;BME280;62866;55.776;37.496;2023-01-25T05:44:18;101235.25;;;-0.61;78.26
54806;BME280;62866;55.776;37.496;2023-01-25T05:46:44;101239.25;;;-0.54;78.30
54806;BME280;62866;55.776;37.496;2023-01-25T05:49:10;101232.22;;;-0.54;78.35
54806;BME280;62866;55.776;37.496;2023-01-25T05:51:36;101239.75;;;-0.48;78.31
54806;BME280;62866;55.776;37.496;2023-01-25T05:54:06;101233.34;;;-0.42;78.15
54806;BME280;62866;55.776;37.496;2023-01-25T05:56:33;101239.25;;;-0.39;78.14
54806;BME280;62866;55.776;37.496;2023-01-25T05:59:00;101244.94;;;-0.46;78.30
54806;BME280;62866;55.776;37.496;2023-01-25T06:01:26;101239.41;;;-0.42;78.12
54806;BME280;62866;55.776;37.496;2023-01-25T06:03:52;101228.91;;;-0.42;78.32
54806;BME280;62866;55.776;37.496;2023-01-25T06:06:19;101241.22;;;-0.42;78.09
54806;BME280;62866;55.776;37.496;2023-01-25T06:08:45;101245.94;;;-0.49;78.30
54806;BME280;62866;55.776;37.496;2023-01-25T06:11:13;101238.66;;;-0.44;78.29
54806;BME280;62866;55.776;37.496;2023-01-25T06:13:40;101243.31;;;-0.33;77.93
54806;BME280;62866;55.776;37.496;2023-01-25T06:16:05;101249.97;;;-0.26;77.64
54806;BME280;62866;55.776;37.496;2023-01-25T06:18:32;101242.50;;;-0.18;77.35
54806;BME280;62866;55.776;37.496;2023-01-25T06:21:02;101253.44;;;-0.10;77.27
54806;BME280;62866;55.776;37.496;2023-01-25T06:23:28;101244.28;;;-0.18;77.55
54806;BME280;62866;55.776;37.496;2023-01-25T06:26:02;101234.84;;;-0.22;77.53
54806;BME280;62866;55.776;37.496;2023-01-25T06:28:31;101246.22;;;-0.06;77.48
54806;BME280;62866;55.776;37.496;2023-01-25T06:31:05;101234.44;;;-0.15;77.13
54806;BME280;62866;55.776;37.496;2023-01-25T06:33:31;101226.03;;;-0.21;77.80
54806;BME280;62866;55.776;37.496;2023-01-25T06:36:05;101236.19;;;0.00;77.33
54806;BME280;62866;55.776;37.496;2023-01-25T06:38:31;101245.75;;;0.17;77.36
54806;BME280;62866;55.776;37.496;2023-01-25T06:40:59;101249.78;;;0.24;76.89
54806;BME280;62866;55.776;37.496;2023-01-25T06:43:29;101255.03;;;0.24;76.58
54806;BME280;62866;55.776;37.496;2023-01-25T06:45:59;101244.16;;;0.30;76.86
54806;BME280;62866;55.776;37.496;2023-01-25T06:48:25;101247.13;;;0.24;76.80
54806;BME280;62866;55.776;37.496;2023-01-25T06:51:11;101266.13;;;0.29;76.35
54806;BME280;62866;55.776;37.496;2023-01-25T06:53:40;101256.69;;;0.25;76.49
54806;BME280;62866;55.776;37.496;2023-01-25T06:56:14;101249.50;;;0.29;76.63
54806;BME280;62866;55.776;37.496;2023-01-25T06:58:41;101245.78;;;0.33;76.81
54806;BME280;62866;55.776;37.496;2023-01-25T07:03:37;101253.97;;;0.43;76.30
54806;BME280;62866;55.776;37.496;2023-01-25T07:06:04;101252.22;;;0.27;76.27
54806;BME280;62866;55.776;37.496;2023-01-25T07:08:31;101244.41;;;0.42;76.69
54806;BME280;62866;55.776;37.496;2023-01-25T07:11:02;101243.28;;;0.46;76.22
54806;BME280;62866;55.776;37.496;2023-01-25T07:13:29;101239.41;;;0.51;76.11
54806;BME280;62866;55.776;37.496;2023-01-25T07:15:57;101243.31;;;0.60;76.29
54806;BME280;62866;55.776;37.496;2023-01-25T07:18:23;101241.59;;;0.59;76.24
54806;BME280;62866;55.776;37.496;2023-01-25T07:20:49;101232.16;;;0.41;75.85
54806;BME280;62866;55.776;37.496;2023-01-25T07:23:15;101236.38;;;0.43;76.31
54806;BME280;62866;55.776;37.496;2023-01-25T07:25:48;101233.34;;;0.35;76.08
54806;BME280;62866;55.776;37.496;2023-01-25T07:28:23;101230.72;;;0.35;76.57
54806;BME280;62866;55.776;37.496;2023-01-25T07:30:49;101227.41;;;0.47;76.48
54806;BME280;62866;55.776;37.496;2023-01-25T07:33:15;101223.34;;;0.42;76.01
54806;BME280;62866;55.776;37.496;2023-01-25T07:35:41;101230.38;;;0.41;75.84
54806;BME280;62866;55.776;37.496;2023-01-25T07:38:07;101221.66;;;0.41;76.15
54806;BME280;62866;55.776;37.496;2023-01-25T07:40:33;101231.53;;;0.51;76.21
54806;BME280;62866;55.776;37.496;2023-01-25T07:42:59;101232.28;;;0.53;76.13
54806;BME280;62866;55.776;37.496;2023-01-25T07:45:25;101223.78;;;0.64;75.74
54806;BME280;62866;55.776;37.496;2023-01-25T07:47:57;101232.53;;;0.64;75.02
54806;BME280;62866;55.776;37.496;2023-01-25T07:50:27;101230.81;;;0.63;75.41
54806;BME280;62866;55.776;37.496;2023-01-25T07:52:53;101222.69;;;0.52;75.06
54806;BME280;62866;55.776;37.496;2023-01-25T07:55:19;101229.50;;;0.56;75.26
54806;BME280;62866;55.776;37.496;2023-01-25T07:57:45;101221.16;;;0.64;75.10
54806;BME280;62866;55.776;37.496;2023-01-25T08:00:12;101215.28;;;0.59;75.05
54806;BME280;62866;55.776;37.496;2023-01-25T08:02:38;101230.00;;;0.77;74.95
54806;BME280;62866;55.776;37.496;2023-01-25T08:05:03;101225.88;;;0.73;74.20
54806;BME280;62866;55.776;37.496;2023-01-25T08:07:31;101220.13;;;0.66;74.31
54806;BME280;62866;55.776;37.496;2023-01-25T08:09:56;101220.84;;;0.68;74.36
54806;BME280;62866;55.776;37.496;2023-01-25T08:12:22;101232.84;;;0.74;74.35
54806;BME280;62866;55.776;37.496;2023-01-25T08:14:49;101219.44;;;0.63;74.43
54806;BME280;62866;55.776;37.496;2023-01-25T08:17:15;101219.94;;;0.69;74.62
54806;BME280;62866;55.776;37.496;2023-01-25T08:19:41;101224.44;;;0.67;74.44
54806;BME280;62866;55.776;37.496;2023-01-25T08:22:07;101219.94;;;0.69;74.29
54806;BME280;62866;55.776;37.496;2023-01-25T08:24:32;101227.38;;;0.77;74.50
54806;BME280;62866;55.776;37.496;2023-01-25T08:26:58;101230.19;;;0.74;74.60
54806;BME280;62866;55.776;37.496;2023-01-25T08:29:24;101229.88;;;0.64;74.22
54806;BME280;62866;55.776;37.496;2023-01-25T08:31:52;101220.00;;;0.68;74.40
54806;BME280;62866;55.776;37.496;2023-01-25T08:34:18;101216.66;;;0.66;74.84
54806;BME280;62866;55.776;37.496;2023-01-25T08:36:43;101222.56;;;0.69;74.68
54806;BME280;62866;55.776;37.496;2023-01-25T08:39:10;101212.34;;;0.79;74.44
54806;BME280;62866;55.776;37.496;2023-01-25T08:41:36;101210.56;;;0.80;74.19
54806;BME280;62866;55.776;37.496;2023-01-25T08:44:02;101210.47;;;0.81;74.34
54806;BME280;62866;55.776;37.496;2023-01-25T08:46:29;101205.97;;;0.83;74.28
54806;BME280;62866;55.776;37.496;2023-01-25T08:48:56;101182.28;;;0.83;74.51
54806;BME280;62866;55.776;37.496;2023-01-25T08:51:22;101199.69;;;1.00;73.96
54806;BME280;62866;55.776;37.496;2023-01-25T08:53:48;101195.22;;;0.86;74.10
54806;BME280;62866;55.776;37.496;2023-01-25T08:56:15;101195.31;;;0.85;74.57
54806;BME280;62866;55.776;37.496;2023-01-25T08:58:45;101186.69;;;0.83;74.56
54806;BME280;62866;55.776;37.496;2023-01-25T09:01:14;101188.72;;;0.77;74.77
54806;BME280;62866;55.776;37.496;2023-01-25T09:03:42;101178.88;;;0.81;75.36
54806;BME280;62866;55.776;37.496;2023-01-25T09:06:09;101177.72;;;0.85;75.28
54806;BME280;62866;55.776;37.496;2023-01-25T09:08:35;101168.63;;;0.91;75.14
54806;BME280;62866;55.776;37.496;2023-01-25T09:11:28;101176.63;;;0.89;74.63
54806;BME280;62866;55.776;37.496;2023-01-25T09:13:54;101171.81;;;0.82;75.05
54806;BME280;62866;55.776;37.496;2023-01-25T09:16:21;101161.00;;;0.86;74.85
54806;BME280;62866;55.776;37.496;2023-01-25T09:18:54;101165.63;;;0.97;74.65
54806;BME280;62866;55.776;37.496;2023-01-25T09:21:20;101154.63;;;0.90;74.54
54806;BME280;62866;55.776;37.496;2023-01-25T09:23:50;101159.31;;;0.85;74.82
54806;BME280;62866;55.776;37.496;2023-01-25T09:26:16;101153.31;;;0.97;74.57
54806;BME280;62866;55.776;37.496;2023-01-25T09:28:46;101147.94;;;0.99;74.38
54806;BME280;62866;55.776;37.496;2023-01-25T09:31:12;101142.66;;;0.85;74.64
54806;BME280;62866;55.776;37.496;2023-01-25T09:33:39;101141.47;;;0.90;74.83
54806;BME280;62866;55.776;37.496;2023-01-25T09:36:05;101145.59;;;0.94;74.56
54806;BME280;62866;55.776;37.496;2023-01-25T09:38:31;101136.66;;;0.97;74.17
54806;BME280;62866;55.776;37.496;2023-01-25T09:43:54;101130.44;;;0.98;74.02
54806;BME280;62866;55.776;37.496;2023-01-25T09:49:06;101117.69;;;0.92;74.18
54806;BME280;62866;55.776;37.496;2023-01-25T09:54:45;101094.34;;;0.57;74.33
54806;BME280;62866;55.776;37.496;2023-01-25T09:57:17;101102.41;;;0.40;74.49
54806;BME280;62866;55.776;37.496;2023-01-25T09:59:46;101099.78;;;0.40;74.68
54806;BME280;62866;55.776;37.496;2023-01-25T10:04:56;101091.44;;;0.62;74.90
54806;BME280;62866;55.776;37.496;2023-01-25T10:07:28;101082.13;;;0.56;74.97
54806;BME280;62866;55.776;37.496;2023-01-25T10:10:05;101090.66;;;0.60;75.03
54806;BME280;62866;55.776;37.496;2023-01-25T10:12:36;101078.47;;;0.73;74.83
54806;BME280;62866;55.776;37.496;2023-01-25T10:17:42;101078.06;;;0.36;75.24
54806;BME280;62866;55.776;37.496;2023-01-25T10:25:49;101085.13;;;0.50;75.35
54806;BME280;62866;55.776;37.496;2023-01-25T10:31:19;101087.94;;;0.61;74.64
54806;BME280;62866;55.776;37.496;2023-01-25T10:33:47;101083.06;;;0.55;74.98
54806;BME280;62866;55.776;37.496;2023-01-25T10:36:16;101091.03;;;0.54;75.33
54806;BME280;62866;55.776;37.496;2023-01-25T10:38:46;101060.59;;;0.50;75.40
54806;BME280;62866;55.776;37.496;2023-01-25T10:41:19;101071.31;;;0.47;74.92
54806;BME280;62866;55.776;37.496;2023-01-25T10:43:46;101066.03;;;0.47;75.05
54806;BME280;62866;55.776;37.496;2023-01-25T10:46:21;101070.38;;;0.33;75.47
54806;BME280;62866;55.776;37.496;2023-01-25T10:48:47;101063.28;;;0.34;75.40
54806;BME280;62866;55.776;37.496;2023-01-25T10:51:31;101066.59;;;0.52;74.85
54806;BME280;62866;55.776;37.496;2023-01-25T10:54:04;101063.22;;;0.64;74.91
54806;BME280;62866;55.776;37.496;2023-01-25T10:56:34;101055.16;;;0.67;74.68
54806;BME280;62866;55.776;37.496;2023-01-25T10:59:21;101042.09;;;0.65;74.61
54806;BME280;62866;55.776;37.496;2023-01-25T11:01:48;101040.56;;;0.61;74.73
54806;BME280;62866;55.776;37.496;2023-01-25T11:04:33;101044.63;;;0.53;74.68
54806;BME280;62866;55.776;37.496;2023-01-25T11:07:00;101036.81;;;0.37;74.81
54806;BME280;62866;55.776;37.496;2023-01-25T11:09:31;101035.69;;;0.41;74.91
54806;BME280;62866;55.776;37.496;2023-01-25T11:14:29;101034.34;;;0.34;74.69
54806;BME280;62866;55.776;37.496;2023-01-25T11:16:57;101037.00;;;0.34;75.15
54806;BME280;62866;55.776;37.496;2023-01-25T11:19:38;101027.31;;;0.34;75.07
54806;BME280;62866;55.776;37.496;2023-01-25T11:22:24;100991.88;;;0.26;74.68
54806;BME280;62866;55.776;37.496;2023-01-25T11:24:50;101020.28;;;0.49;74.69
54806;BME280;62866;55.776;37.496;2023-01-25T11:27:20;101023.56;;;0.67;74.49
54806;BME280;62866;55.776;37.496;2023-01-25T11:32:30;101008.34;;;0.44;74.71
54806;BME280;62866;55.776;37.496;2023-01-25T11:34:56;101008.22;;;0.59;74.54
54806;BME280;62866;55.776;37.496;2023-01-25T11:43:33;100998.75;;;0.43;73.22
54806;BME280;62866;55.776;37.496;2023-01-25T11:54:34;100993.84;;;0.51;73.51
54806;BME280;62866;55.776;37.496;2023-01-25T12:08:33;100992.56;;;0.58;72.70
54806;BME280;62866;55.776;37.496;2023-01-25T12:13:41;100992.28;;;0.48;71.86
54806;BME280;62866;55.776;37.496;2023-01-25T12:19:27;100976.41;;;0.50;71.69
54806;BME280;62866;55.776;37.496;2023-01-25T12:22:30;100989.91;;;0.44;71.54
54806;BME280;62866;55.776;37.496;2023-01-25T12:25:18;100992.28;;;0.48;71.29
54806;BME280;62866;55.776;37.496;2023-01-25T12:33:44;100950.84;;;0.09;71.23
54806;BME280;62866;55.776;37.496;2023-01-25T12:44:21;100959.75;;;0.35;71.38
54806;BME280;62866;55.776;37.496;2023-01-25T12:47:06;100965.97;;;0.34;71.28
54806;BME280;62866;55.776;37.496;2023-01-25T12:49:43;100946.63;;;0.21;71.12
54806;BME280;62866;55.776;37.496;2023-01-25T12:52:32;100945.88;;;0.19;71.36
54806;BME280;62866;55.776;37.496;2023-01-25T12:55:25;100953.66;;;0.20;71.69
54806;BME280;62866;55.776;37.496;2023-01-25T13:06:25;100953.03;;;0.17;72.00
54806;BME280;62866;55.776;37.496;2023-01-25T13:11:41;100951.13;;;0.19;71.88
54806;BME280;62866;55.776;37.496;2023-01-25T13:16:44;100937.72;;;0.23;71.67
54806;BME280;62866;55.776;37.496;2023-01-25T13:21:58;100944.19;;;0.32;71.95
54806;BME280;62866;55.776;37.496;2023-01-25T13:24:32;100940.88;;;0.28;71.92
54806;BME280;62866;55.776;37.496;2023-01-25T13:27:00;100929.63;;;0.26;71.97
54806;BME280;62866;55.776;37.496;2023-01-25T13:32:00;100900.72;;;0.12;72.72
54806;BME280;62866;55.776;37.496;2023-01-25T13:37:02;100890.66;;;0.05;73.25
54806;BME280;62866;55.776;37.496;2023-01-25T13:42:01;100888.59;;;-0.05;73.26
54806;BME280;62866;55.776;37.496;2023-01-25T13:44:30;100884.19;;;-0.04;73.80
54806;BME280;62866;55.776;37.496;2023-01-25T13:47:00;100872.91;;;-0.06;73.47
54806;BME280;62866;55.776;37.496;2023-01-25T13:49:34;100865.69;;;-0.17;73.86
54806;BME280;62866;55.776;37.496;2023-01-25T13:52:02;100865.31;;;-0.25;73.91
54806;BME280;62866;55.776;37.496;2023-01-25T13:54:29;100856.78;;;-0.28;74.01
54806;BME280;62866;55.776;37.496;2023-01-25T13:57:11;100871.78;;;-0.16;73.92
54806;BME280;62866;55.776;37.496;2023-01-25T13:59:37;100854.22;;;-0.16;74.15
54806;BME280;62866;55.776;37.496;2023-01-25T14:02:11;100854.78;;;-0.25;74.16
54806;BME280;62866;55.776;37.496;2023-01-25T14:04:38;100856.69;;;-0.27;74.65
54806;BME280;62866;55.776;37.496;2023-01-25T14:07:04;100849.75;;;-0.28;74.57
54806;BME280;62866;55.776;37.496;2023-01-25T14:09:34;100859.03;;;-0.22;74.59
54806;BME280;62866;55.776;37.496;2023-01-25T14:12:01;100855.84;;;-0.13;74.56
54806;BME280;62866;55.776;37.496;2023-01-25T14:14:34;100859.78;;;-0.06;74.49
54806;BME280;62866;55.776;37.496;2023-01-25T14:17:18;100856.78;;;-0.14;74.76
54806;BME280;62866;55.776;37.496;2023-01-25T14:19:46;100857.72;;;-0.15;74.71
54806;BME280;62866;55.776;37.496;2023-01-25T14:22:21;100861.28;;;-0.16;74.86
54806;BME280;62866;55.776;37.496;2023-01-25T14:27:36;100859.66;;;-0.33;75.74
54806;BME280;62866;55.776;37.496;2023-01-25T14:30:05;100844.66;;;-0.31;75.54
54806;BME280;62866;55.776;37.496;2023-01-25T14:32:40;100840.34;;;-0.46;76.01
54806;BME280;62866;55.776;37.496;2023-01-25T14:35:42;100846.53;;;-0.47;76.00
54806;BME280;62866;55.776;37.496;2023-01-25T14:40:46;100853.56;;;-0.33;76.06
54806;BME280;62866;55.776;37.496;2023-01-25T14:43:14;100846.44;;;-0.46;76.05
54806;BME280;62866;55.776;37.496;2023-01-25T14:45:40;100856.41;;;-0.36;76.38
54806;BME280;62866;55.776;37.496;2023-01-25T14:48:39;100852.94;;;-0.37;76.29
54806;BME280;62866;55.776;37.496;2023-01-25T14:51:11;100828.31;;;-0.50;76.38
54806;BME280;62866;55.776;37.496;2023-01-25T14:53:41;100852.63;;;-0.32;76.25